Aérodrome :
LOGIN :

S'inscrire | Disclaimer

   EN    FR    IT 

 










Légende :    VFR   VFR Marginal   IFR   IFR Intensif   IFR Très Intensif
Visi : 
Plafond : 
>= 8 km
>= 3000ft
5 à 8 km
1000 à 3000 ft
1500m à 5 km
500 à 1000 ft
800 à 1500m
200 à 500 ft
< 800m
< 200 ft
Symboles :   Orages  Brouillard  Fortes neiges  Fortes précipitations  Vent > 20 kt
SIGMETs :   Divers  Orages  Givrage  Turbulence  Onde Orograph.  Cendres Volcan.







- Altitude de l'aérodrome : 357 ft
- Code IATA : TUF
- Voir les cartes d'approche


LFOT - Tours

DERNIER METAR :
  • 270400Z AUTO 17002KT CAVOK 17/14 Q1014 NOSIG

METARs EXPIRÉS :
  • 270330Z AUTO 14002KT CAVOK 18/14 Q1014 NOSIG
  • 270300Z AUTO VRB01KT CAVOK 19/15 Q1014 NOSIG
  • 270230Z AUTO 27004KT 180V320 CAVOK 20/15 Q1014 NOSIG
  • 270200Z AUTO 27007KT CAVOK 21/15 Q1014 NOSIG
  • 270130Z AUTO 27010KT CAVOK 21/16 Q1014 BECMG 20005KT

TAF TAF LFOT
Valide du 27 à 00h jusqu'au 28 à 00h UTC


262300Z 2700/2724 11006KT CAVOK
BECMG 2703/2706 20005KT
BECMG 2716/2719 VRB02KT
Pas de NOTAMs connus pour ce terrain.



MET'MAP, la Météo Aéronautique d'un coup d'oeil ! - Copyright ORBIFLY Décembre 2007 - Disclaimer

ORBIFLY MET'MAP TEAM :

Programmation & Développement : Alexandra Zaïnal
Conception & Développement : Baudouin d'Aumeries
Co-Programmation & Développement : Marc-Olivier Méhu
Soutien technique & logistique : Manuel Goepfert

Contact : metmap@orbifly.com




SOURCES & CREDITS :

   NOAA